Airfield :







YOU CAN JOIN US ON...

 
LOGIN :

Register | Disclaimer

   EN    FR    IT 

 









Legend :    VFR   Marginal VFR   IFR   Intensive IFR   Very Intensive IFR
Visi :
Ceiling :
>= 8 km
>= 3000ft
5 to 8 km
1000 to 3000 ft
1500m to 5 km
500 to 1000 ft
800 to 1500m
200 to 500 ft
< 800m
< 200 ft
Symbols :   Thunderstorms  Fog  Heavy snow  Heavy precipitations  Wind > 20 kt







- Airport Elevation : 501 ft
- IATA code : YWB


CYKG - Kangiqsujuaq (Wakeham Bay)

CURRENT METAR :
  • 171400Z 05009KT 3SM -DZ BR FEW002 BKN005 OVC008 02/01 A2991 RMK ST2ST5ST1 VIS WNW-NNE 1 1/2 SLP143

EXPIRED METARs :
  • 171341Z 03010KT 1 1/4SM +DZ BR BCFG BKN003 OVC006 02/01 A2991 RMK ST5ST3 VIS S 4 SLP143
  • 171320Z 05008KT 1 1/4SM -DZ BR BKN003 OVC007 01/01 A2991 RMK ST6ST2 VIS 3/4-1 3/4 SLP142
  • 171300Z 02009KT 2SM -SN BR FEW003 BKN005 OVC007 02/01 A2991 RMK ST2ST5ST1 SLP143
  • 171223Z 03007KT 1 3/4SM -DZ BR FEW002 BKN005 OVC009 02/01 A2992 RMK ST2ST4ST2 SLP144
  • 171200Z 01004KT 310V050 5SM -DZ VCFG FEW003 SCT005 OVC009 02/01 A2991 RMK ST2ST2ST4 VIS W-NNE 1 SLP143

TAF TAF CYKG
Valid from the 17 at 14:00 until the 17 at 21:00 UTC


171338Z 1714/1721 03008KT 1SM BR BKN004 OVC008
TEMPO 1714/1721 3SM -DZ BR BKN006 OVC010 RMK NXT FCST WILL BE ISSUED AT 181345Z
CZUL FIR / North America



MET'MAP, your aeronautical weather chart ! - Copyright ORBIFLY December 2007 - Disclaimer

ORBIFLY MET'MAP TEAM :

Programming & Development : Alexandra Zaïnal
Concept & Development : Baudouin d'Aumeries
Co-Development & Prog : Marc-Olivier Méhu
Technical & hardware support : Manuel Goepfert

Contact : metmap@orbifly.com




SOURCES & CREDITS :

   NOAA